sensor_id;sensor_type;location;lat;lon;timestamp;pressure;altitude;pressure_sealevel;temperature;humidity
54122;BME280;40029;58.708;50.190;2024-03-25T00:02:15;98992.72;;;1.70;79.31
54122;BME280;40029;58.708;50.190;2024-03-25T00:04:46;98992.81;;;1.64;79.96
54122;BME280;40029;58.708;50.190;2024-03-25T00:07:18;98996.22;;;1.69;79.63
54122;BME280;40029;58.708;50.190;2024-03-25T00:09:49;98991.84;;;1.69;79.79
54122;BME280;40029;58.708;50.190;2024-03-25T00:12:20;98994.41;;;1.72;79.45
54122;BME280;40029;58.708;50.190;2024-03-25T00:14:51;98997.06;;;1.69;79.84
54122;BME280;40029;58.708;50.190;2024-03-25T00:17:41;98990.19;;;1.67;79.61
54122;BME280;40029;58.708;50.190;2024-03-25T00:20:13;98989.22;;;1.71;79.17
54122;BME280;40029;58.708;50.190;2024-03-25T00:22:46;98983.16;;;1.70;79.43
54122;BME280;40029;58.708;50.190;2024-03-25T00:25:17;98984.94;;;1.68;79.57
54122;BME280;40029;58.708;50.190;2024-03-25T00:27:48;98989.22;;;1.71;79.40
54122;BME280;40029;58.708;50.190;2024-03-25T00:30:19;98983.13;;;1.72;79.06
54122;BME280;40029;58.708;50.190;2024-03-25T00:32:50;98981.50;;;1.66;79.39
54122;BME280;40029;58.708;50.190;2024-03-25T00:35:21;98985.00;;;1.65;79.90
54122;BME280;40029;58.708;50.190;2024-03-25T00:37:54;98986.72;;;1.66;79.81
54122;BME280;40029;58.708;50.190;2024-03-25T00:40:25;98982.41;;;1.64;79.88
54122;BME280;40029;58.708;50.190;2024-03-25T00:42:57;98985.91;;;1.64;79.67
54122;BME280;40029;58.708;50.190;2024-03-25T00:45:28;98985.84;;;1.66;79.92
54122;BME280;40029;58.708;50.190;2024-03-25T00:48:01;98978.03;;;1.66;79.68
54122;BME280;40029;58.708;50.190;2024-03-25T00:50:33;98984.19;;;1.62;79.60
54122;BME280;40029;58.708;50.190;2024-03-25T00:53:04;98979.88;;;1.61;79.99
54122;BME280;40029;58.708;50.190;2024-03-25T00:55:35;98978.94;;;1.63;79.56
54122;BME280;40029;58.708;50.190;2024-03-25T00:58:06;98978.94;;;1.63;80.00
54122;BME280;40029;58.708;50.190;2024-03-25T01:00:37;98973.75;;;1.62;79.83
54122;BME280;40029;58.708;50.190;2024-03-25T01:03:27;98971.09;;;1.65;79.92
54122;BME280;40029;58.708;50.190;2024-03-25T01:05:58;98965.94;;;1.62;79.60
54122;BME280;40029;58.708;50.190;2024-03-25T01:08:30;98963.41;;;1.59;79.95
54122;BME280;40029;58.708;50.190;2024-03-25T01:11:01;98967.69;;;1.61;79.95
54122;BME280;40029;58.708;50.190;2024-03-25T01:13:32;98961.69;;;1.56;80.17
54122;BME280;40029;58.708;50.190;2024-03-25T01:16:03;98965.25;;;1.53;79.82
54122;BME280;40029;58.708;50.190;2024-03-25T01:18:53;98960.88;;;1.54;79.83
54122;BME280;40029;58.708;50.190;2024-03-25T01:21:24;98956.63;;;1.48;79.89
54122;BME280;40029;58.708;50.190;2024-03-25T01:23:56;98961.00;;;1.48;79.94
54122;BME280;40029;58.708;50.190;2024-03-25T01:26:27;98960.13;;;1.47;80.11
54122;BME280;40029;58.708;50.190;2024-03-25T01:28:59;98960.19;;;1.44;80.36
54122;BME280;40029;58.708;50.190;2024-03-25T01:31:49;98951.59;;;1.39;80.24
54122;BME280;40029;58.708;50.190;2024-03-25T01:34:20;98948.16;;;1.37;80.69
54122;BME280;40029;58.708;50.190;2024-03-25T01:36:51;98957.69;;;1.38;80.38
54122;BME280;40029;58.708;50.190;2024-03-25T01:39:44;98947.34;;;1.35;80.70
54122;BME280;40029;58.708;50.190;2024-03-25T01:42:15;98949.88;;;1.38;79.85
54122;BME280;40029;58.708;50.190;2024-03-25T01:44:47;98946.56;;;1.30;80.96
54122;BME280;40029;58.708;50.190;2024-03-25T01:47:19;98944.81;;;1.29;80.63
54122;BME280;40029;58.708;50.190;2024-03-25T01:49:51;98949.97;;;1.32;80.33
54122;BME280;40029;58.708;50.190;2024-03-25T01:52:25;98945.69;;;1.29;80.32
54122;BME280;40029;58.708;50.190;2024-03-25T01:54:56;98943.13;;;1.26;80.29
54122;BME280;40029;58.708;50.190;2024-03-25T01:57:28;98940.66;;;1.19;80.96
54122;BME280;40029;58.708;50.190;2024-03-25T01:59:59;98937.16;;;1.20;80.67
54122;BME280;40029;58.708;50.190;2024-03-25T02:02:36;98932.75;;;1.25;80.57
54122;BME280;40029;58.708;50.190;2024-03-25T02:05:10;98932.00;;;1.18;81.42
54122;BME280;40029;58.708;50.190;2024-03-25T02:07:42;98927.56;;;1.22;80.51
54122;BME280;40029;58.708;50.190;2024-03-25T02:10:13;98929.25;;;1.26;81.03
54122;BME280;40029;58.708;50.190;2024-03-25T02:12:46;98925.78;;;1.25;80.25
54122;BME280;40029;58.708;50.190;2024-03-25T02:15:18;98929.31;;;1.23;80.48
54122;BME280;40029;58.708;50.190;2024-03-25T02:17:50;98925.91;;;1.18;80.90
54122;BME280;40029;58.708;50.190;2024-03-25T02:20:21;98925.91;;;1.19;81.01
54122;BME280;40029;58.708;50.190;2024-03-25T02:22:53;98927.53;;;1.25;80.97
54122;BME280;40029;58.708;50.190;2024-03-25T02:25:25;98924.06;;;1.24;80.82
54122;BME280;40029;58.708;50.190;2024-03-25T02:27:57;98920.53;;;1.27;80.93
54122;BME280;40029;58.708;50.190;2024-03-25T02:30:28;98914.38;;;1.31;80.33
54122;BME280;40029;58.708;50.190;2024-03-25T02:32:59;98903.19;;;1.27;80.16
54122;BME280;40029;58.708;50.190;2024-03-25T02:35:30;98897.09;;;1.28;80.79
54122;BME280;40029;58.708;50.190;2024-03-25T02:38:02;98902.25;;;1.31;79.98
54122;BME280;40029;58.708;50.190;2024-03-25T02:40:35;98891.03;;;1.28;80.32
54122;BME280;40029;58.708;50.190;2024-03-25T02:43:06;98879.84;;;1.21;81.15
54122;BME280;40029;58.708;50.190;2024-03-25T02:45:38;98882.47;;;1.20;81.38
54122;BME280;40029;58.708;50.190;2024-03-25T02:48:09;98869.50;;;1.18;81.26
54122;BME280;40029;58.708;50.190;2024-03-25T02:50:40;98869.56;;;1.15;81.92
54122;BME280;40029;58.708;50.190;2024-03-25T02:53:12;98875.63;;;1.15;81.55
54122;BME280;40029;58.708;50.190;2024-03-25T02:55:43;98872.22;;;1.12;81.97
54122;BME280;40029;58.708;50.190;2024-03-25T02:58:14;98860.94;;;1.11;82.81
54122;BME280;40029;58.708;50.190;2024-03-25T03:00:45;98861.81;;;1.10;82.69
54122;BME280;40029;58.708;50.190;2024-03-25T03:03:17;98860.13;;;1.09;83.45
54122;BME280;40029;58.708;50.190;2024-03-25T03:05:48;98854.00;;;1.10;83.10
54122;BME280;40029;58.708;50.190;2024-03-25T03:08:19;98857.50;;;1.09;83.33
54122;BME280;40029;58.708;50.190;2024-03-25T03:10:50;98847.94;;;1.10;83.17
54122;BME280;40029;58.708;50.190;2024-03-25T03:13:21;98855.78;;;1.08;83.83
54122;BME280;40029;58.708;50.190;2024-03-25T03:15:52;98848.94;;;1.03;84.44
54122;BME280;40029;58.708;50.190;2024-03-25T03:18:24;98848.91;;;1.06;83.93
54122;BME280;40029;58.708;50.190;2024-03-25T03:20:55;98841.88;;;1.11;84.23
54122;BME280;40029;58.708;50.190;2024-03-25T03:23:28;98835.91;;;1.04;84.40
54122;BME280;40029;58.708;50.190;2024-03-25T03:25:59;98841.06;;;1.07;84.14
54122;BME280;40029;58.708;50.190;2024-03-25T03:28:31;98834.13;;;1.06;84.57
54122;BME280;40029;58.708;50.190;2024-03-25T03:31:02;98834.13;;;1.06;84.65
54122;BME280;40029;58.708;50.190;2024-03-25T03:33:35;98828.88;;;1.09;84.28
54122;BME280;40029;58.708;50.190;2024-03-25T03:36:07;98832.31;;;1.11;83.98
54122;BME280;40029;58.708;50.190;2024-03-25T03:38:38;98825.34;;;1.10;84.32
54122;BME280;40029;58.708;50.190;2024-03-25T03:41:09;98821.88;;;1.11;84.38
54122;BME280;40029;58.708;50.190;2024-03-25T03:43:41;98819.22;;;1.14;84.12
54122;BME280;40029;58.708;50.190;2024-03-25T03:46:30;98820.09;;;1.13;84.15
54122;BME280;40029;58.708;50.190;2024-03-25T03:49:01;98809.66;;;1.15;84.79
54122;BME280;40029;58.708;50.190;2024-03-25T03:51:32;98815.66;;;1.19;84.70
54122;BME280;40029;58.708;50.190;2024-03-25T03:54:03;98811.50;;;1.08;85.33
54122;BME280;40029;58.708;50.190;2024-03-25T03:56:34;98811.50;;;1.08;85.00
54122;BME280;40029;58.708;50.190;2024-03-25T03:59:06;98807.13;;;1.10;85.36
54122;BME280;40029;58.708;50.190;2024-03-25T04:01:55;98814.09;;;1.10;85.50
54122;BME280;40029;58.708;50.190;2024-03-25T04:04:27;98807.78;;;1.22;85.23
54122;BME280;40029;58.708;50.190;2024-03-25T04:06:58;98807.75;;;1.23;84.89
54122;BME280;40029;58.708;50.190;2024-03-25T04:09:29;98799.97;;;1.22;85.49
54122;BME280;40029;58.708;50.190;2024-03-25T04:12:00;98806.91;;;1.23;85.04
54122;BME280;40029;58.708;50.190;2024-03-25T04:14:32;98805.91;;;1.30;85.32
54122;BME280;40029;58.708;50.190;2024-03-25T04:17:04;98807.03;;;1.17;85.71
54122;BME280;40029;58.708;50.190;2024-03-25T04:19:35;98807.78;;;1.22;85.10
54122;BME280;40029;58.708;50.190;2024-03-25T04:22:06;98815.78;;;1.12;85.49
54122;BME280;40029;58.708;50.190;2024-03-25T04:24:38;98810.63;;;1.11;86.16
54122;BME280;40029;58.708;50.190;2024-03-25T04:27:09;98815.13;;;1.01;86.44
54122;BME280;40029;58.708;50.190;2024-03-25T04:29:40;98817.75;;;1.00;86.71
54122;BME280;40029;58.708;50.190;2024-03-25T04:32:12;98813.28;;;1.06;86.12
54122;BME280;40029;58.708;50.190;2024-03-25T04:34:43;98810.00;;;0.98;87.13
54122;BME280;40029;58.708;50.190;2024-03-25T04:37:14;98809.06;;;1.01;87.13
54122;BME280;40029;58.708;50.190;2024-03-25T04:39:46;98798.75;;;0.96;86.37
54122;BME280;40029;58.708;50.190;2024-03-25T04:42:23;98803.88;;;0.99;86.64
54122;BME280;40029;58.708;50.190;2024-03-25T04:44:57;98799.63;;;0.95;87.37
54122;BME280;40029;58.708;50.190;2024-03-25T04:47:28;98789.09;;;1.01;87.09
54122;BME280;40029;58.708;50.190;2024-03-25T04:49:59;98792.50;;;1.05;87.05
54122;BME280;40029;58.708;50.190;2024-03-25T04:52:31;98788.06;;;1.10;86.44
54122;BME280;40029;58.708;50.190;2024-03-25T04:55:02;98795.78;;;1.14;86.00
54122;BME280;40029;58.708;50.190;2024-03-25T04:57:35;98794.94;;;1.12;86.38
54122;BME280;40029;58.708;50.190;2024-03-25T05:00:07;98794.13;;;1.10;86.90
54122;BME280;40029;58.708;50.190;2024-03-25T05:02:59;98798.44;;;1.11;86.59
54122;BME280;40029;58.708;50.190;2024-03-25T05:05:31;98789.72;;;1.14;86.13
54122;BME280;40029;58.708;50.190;2024-03-25T05:08:20;98791.44;;;1.15;86.68
54122;BME280;40029;58.708;50.190;2024-03-25T05:10:51;98794.13;;;1.10;86.34
54122;BME280;40029;58.708;50.190;2024-03-25T05:13:23;98793.25;;;1.11;86.77
54122;BME280;40029;58.708;50.190;2024-03-25T05:15:54;98797.72;;;1.03;87.18
54122;BME280;40029;58.708;50.190;2024-03-25T05:18:25;98795.03;;;1.09;86.92
54122;BME280;40029;58.708;50.190;2024-03-25T05:20:56;98801.75;;;1.20;86.59
54122;BME280;40029;58.708;50.190;2024-03-25T05:23:45;98797.31;;;1.25;86.26
54122;BME280;40029;58.708;50.190;2024-03-25T05:26:17;98794.63;;;1.29;86.51
54122;BME280;40029;58.708;50.190;2024-03-25T05:28:57;98798.78;;;1.38;86.56
54122;BME280;40029;58.708;50.190;2024-03-25T05:31:29;98808.38;;;1.36;86.03
54122;BME280;40029;58.708;50.190;2024-03-25T05:34:03;98799.72;;;1.34;86.56
54122;BME280;40029;58.708;50.190;2024-03-25T05:36:39;98797.78;;;1.44;86.20
54122;BME280;40029;58.708;50.190;2024-03-25T05:39:29;98800.31;;;1.48;85.79
54122;BME280;40029;58.708;50.190;2024-03-25T05:42:00;98796.03;;;1.46;85.64
54122;BME280;40029;58.708;50.190;2024-03-25T05:44:31;98801.91;;;1.56;85.85
54122;BME280;40029;58.708;50.190;2024-03-25T05:47:02;98801.75;;;1.62;85.83
54122;BME280;40029;58.708;50.190;2024-03-25T05:49:34;98789.56;;;1.64;85.81
54122;BME280;40029;58.708;50.190;2024-03-25T05:52:23;98791.94;;;1.74;85.44
54122;BME280;40029;58.708;50.190;2024-03-25T05:54:55;98778.34;;;1.60;86.46
54122;BME280;40029;58.708;50.190;2024-03-25T05:57:26;98781.53;;;1.73;85.89
54122;BME280;40029;58.708;50.190;2024-03-25T05:59:58;98786.56;;;1.81;85.33
54122;BME280;40029;58.708;50.190;2024-03-25T06:02:29;98797.69;;;1.90;85.62
54122;BME280;40029;58.708;50.190;2024-03-25T06:05:01;98797.94;;;1.78;86.11
54122;BME280;40029;58.708;50.190;2024-03-25T06:07:50;98796.34;;;1.71;85.84
54122;BME280;40029;58.708;50.190;2024-03-25T06:10:22;98800.53;;;1.78;86.13
54122;BME280;40029;58.708;50.190;2024-03-25T06:12:53;98802.38;;;1.73;86.26
54122;BME280;40029;58.708;50.190;2024-03-25T06:15:24;98795.25;;;1.83;86.08
54122;BME280;40029;58.708;50.190;2024-03-25T06:17:56;98789.91;;;1.87;85.88
54122;BME280;40029;58.708;50.190;2024-03-25T06:20:27;98787.16;;;1.93;85.90
54122;BME280;40029;58.708;50.190;2024-03-25T06:22:58;98790.28;;;2.09;86.01
54122;BME280;40029;58.708;50.190;2024-03-25T06:25:30;98787.03;;;2.00;86.02
54122;BME280;40029;58.708;50.190;2024-03-25T06:28:01;98786.44;;;1.88;86.79
54122;BME280;40029;58.708;50.190;2024-03-25T06:30:32;98787.38;;;1.84;87.03
54122;BME280;40029;58.708;50.190;2024-03-25T06:33:22;98794.56;;;1.73;87.76
54122;BME280;40029;58.708;50.190;2024-03-25T06:36:11;98792.66;;;1.81;87.52
54122;BME280;40029;58.708;50.190;2024-03-25T06:38:43;98803.91;;;1.83;87.34
54122;BME280;40029;58.708;50.190;2024-03-25T06:41:14;98782.81;;;1.94;87.52
54122;BME280;40029;58.708;50.190;2024-03-25T06:43:45;98805.59;;;1.86;87.08
54122;BME280;40029;58.708;50.190;2024-03-25T06:46:16;98788.72;;;2.01;87.00
54122;BME280;40029;58.708;50.190;2024-03-25T06:48:47;98801.66;;;2.07;87.43
54122;BME280;40029;58.708;50.190;2024-03-25T06:51:18;98802.69;;;2.00;87.38
54122;BME280;40029;58.708;50.190;2024-03-25T06:53:50;98797.47;;;2.00;87.87
54122;BME280;40029;58.708;50.190;2024-03-25T06:56:23;98802.56;;;2.04;87.62
54122;BME280;40029;58.708;50.190;2024-03-25T06:58:54;98810.59;;;1.95;88.07
54122;BME280;40029;58.708;50.190;2024-03-25T07:01:25;98810.22;;;1.73;88.25
54122;BME280;40029;58.708;50.190;2024-03-25T07:03:56;98803.28;;;1.72;88.79
54122;BME280;40029;58.708;50.190;2024-03-25T07:06:27;98804.88;;;1.79;89.27
54122;BME280;40029;58.708;50.190;2024-03-25T07:08:58;98802.38;;;1.73;89.32
54122;BME280;40029;58.708;50.190;2024-03-25T07:11:29;98801.44;;;1.77;89.20
54122;BME280;40029;58.708;50.190;2024-03-25T07:14:01;98804.16;;;1.71;89.17
54122;BME280;40029;58.708;50.190;2024-03-25T07:16:34;98810.13;;;1.78;89.12
54122;BME280;40029;58.708;50.190;2024-03-25T07:19:06;98807.97;;;1.97;89.05
54122;BME280;40029;58.708;50.190;2024-03-25T07:21:37;98804.72;;;1.85;88.85
54122;BME280;40029;58.708;50.190;2024-03-25T07:24:08;98810.50;;;2.00;88.94
54122;BME280;40029;58.708;50.190;2024-03-25T07:26:39;98809.56;;;2.02;88.92
54122;BME280;40029;58.708;50.190;2024-03-25T07:29:10;98814.69;;;2.07;89.33
54122;BME280;40029;58.708;50.190;2024-03-25T07:31:42;98809.59;;;2.01;89.06
54122;BME280;40029;58.708;50.190;2024-03-25T07:34:13;98815.84;;;1.93;89.26
54122;BME280;40029;58.708;50.190;2024-03-25T07:36:44;98815.94;;;1.89;89.36
54122;BME280;40029;58.708;50.190;2024-03-25T07:39:15;98826.38;;;1.89;89.92
54122;BME280;40029;58.708;50.190;2024-03-25T07:41:46;98822.81;;;1.93;89.78
54122;BME280;40029;58.708;50.190;2024-03-25T07:44:17;98819.75;;;2.13;88.85
54122;BME280;40029;58.708;50.190;2024-03-25T07:46:48;98814.03;;;1.97;89.56
54122;BME280;40029;58.708;50.190;2024-03-25T07:49:20;98813.97;;;2.00;89.31
54122;BME280;40029;58.708;50.190;2024-03-25T07:51:51;98814.75;;;2.04;88.69
54122;BME280;40029;58.708;50.190;2024-03-25T07:54:22;98817.28;;;2.07;88.94
54122;BME280;40029;58.708;50.190;2024-03-25T07:56:53;98816.75;;;1.92;90.03
54122;BME280;40029;58.708;50.190;2024-03-25T07:59:43;98821.81;;;1.99;89.75
54122;BME280;40029;58.708;50.190;2024-03-25T08:02:14;98825.31;;;1.98;89.63
54122;BME280;40029;58.708;50.190;2024-03-25T08:04:45;98828.88;;;1.93;89.89
54122;BME280;40029;58.708;50.190;2024-03-25T08:07:16;98826.97;;;2.02;89.62
54122;BME280;40029;58.708;50.190;2024-03-25T08:09:47;98833.69;;;2.12;89.12
54122;BME280;40029;58.708;50.190;2024-03-25T08:12:18;98832.25;;;1.99;90.00
54122;BME280;40029;58.708;50.190;2024-03-25T08:14:50;98838.84;;;2.13;89.91
54122;BME280;40029;58.708;50.190;2024-03-25T08:17:21;98847.63;;;2.11;89.39
54122;BME280;40029;58.708;50.190;2024-03-25T08:20:11;98848.53;;;2.08;89.43
54122;BME280;40029;58.708;50.190;2024-03-25T08:22:43;98845.69;;;2.19;89.77
54122;BME280;40029;58.708;50.190;2024-03-25T08:25:15;98838.56;;;2.27;89.80
54122;BME280;40029;58.708;50.190;2024-03-25T08:27:46;98836.03;;;2.23;89.10
54122;BME280;40029;58.708;50.190;2024-03-25T08:30:17;98851.22;;;2.43;88.86
54122;BME280;40029;58.708;50.190;2024-03-25T08:32:48;98844.63;;;2.28;89.26
54122;BME280;40029;58.708;50.190;2024-03-25T08:35:19;98836.75;;;2.29;89.68
54122;BME280;40029;58.708;50.190;2024-03-25T08:37:51;98833.81;;;2.43;89.05
54122;BME280;40029;58.708;50.190;2024-03-25T08:40:22;98835.69;;;2.38;89.58
54122;BME280;40029;58.708;50.190;2024-03-25T08:42:53;98843.41;;;2.43;89.36
54122;BME280;40029;58.708;50.190;2024-03-25T08:45:24;98845.34;;;2.35;89.28
54122;BME280;40029;58.708;50.190;2024-03-25T08:47:55;98849.53;;;2.42;89.79
54122;BME280;40029;58.708;50.190;2024-03-25T08:50:26;98842.84;;;2.30;89.49
54122;BME280;40029;58.708;50.190;2024-03-25T08:52:57;98837.56;;;2.33;89.55
54122;BME280;40029;58.708;50.190;2024-03-25T08:55:29;98840.03;;;2.38;89.89
54122;BME280;40029;58.708;50.190;2024-03-25T08:58:00;98832.34;;;2.33;89.24
54122;BME280;40029;58.708;50.190;2024-03-25T09:00:31;98833.13;;;2.37;89.86
54122;BME280;40029;58.708;50.190;2024-03-25T09:03:21;98834.53;;;2.50;89.57
54122;BME280;40029;58.708;50.190;2024-03-25T09:05:52;98826.06;;;2.42;89.63
54122;BME280;40029;58.708;50.190;2024-03-25T09:08:23;98821.69;;;2.42;89.65
54122;BME280;40029;58.708;50.190;2024-03-25T09:10:54;98830.31;;;2.44;89.68
54122;BME280;40029;58.708;50.190;2024-03-25T09:13:35;98829.00;;;2.64;89.19
54122;BME280;40029;58.708;50.190;2024-03-25T09:16:06;98829.47;;;2.44;89.35
54122;BME280;40029;58.708;50.190;2024-03-25T09:18:37;98831.63;;;2.62;89.35
54122;BME280;40029;58.708;50.190;2024-03-25T09:21:08;98829.16;;;2.56;88.86
54122;BME280;40029;58.708;50.190;2024-03-25T09:23:58;98826.94;;;2.41;89.79
54122;BME280;40029;58.708;50.190;2024-03-25T09:26:51;98829.38;;;2.47;89.21
54122;BME280;40029;58.708;50.190;2024-03-25T09:29:23;98826.88;;;2.44;89.62
54122;BME280;40029;58.708;50.190;2024-03-25T09:31:53;98829.31;;;2.50;89.60
54122;BME280;40029;58.708;50.190;2024-03-25T09:34:25;98823.50;;;2.39;89.86
54122;BME280;40029;58.708;50.190;2024-03-25T09:36:55;98825.81;;;2.51;89.42
54122;BME280;40029;58.708;50.190;2024-03-25T09:39:28;98826.50;;;2.58;89.79
54122;BME280;40029;58.708;50.190;2024-03-25T09:42:01;98832.69;;;2.55;89.39
54122;BME280;40029;58.708;50.190;2024-03-25T09:44:50;98830.94;;;2.54;89.40
54122;BME280;40029;58.708;50.190;2024-03-25T09:47:23;98831.59;;;2.64;89.42
54122;BME280;40029;58.708;50.190;2024-03-25T09:49:55;98841.47;;;2.51;89.44
54122;BME280;40029;58.708;50.190;2024-03-25T09:52:27;98842.31;;;2.53;89.84
54122;BME280;40029;58.708;50.190;2024-03-25T09:55:17;98843.94;;;2.57;90.12
54122;BME280;40029;58.708;50.190;2024-03-25T09:57:50;98843.97;;;2.56;89.71
54122;BME280;40029;58.708;50.190;2024-03-25T10:00:22;98841.38;;;2.54;89.25
54122;BME280;40029;58.708;50.190;2024-03-25T10:02:54;98842.19;;;2.56;90.02
54122;BME280;40029;58.708;50.190;2024-03-25T10:05:26;98839.53;;;2.59;89.55
54122;BME280;40029;58.708;50.190;2024-03-25T10:08:24;98834.31;;;2.59;89.65
54122;BME280;40029;58.708;50.190;2024-03-25T10:11:02;98838.66;;;2.60;89.86
54122;BME280;40029;58.708;50.190;2024-03-25T10:13:51;98835.94;;;2.63;89.00
54122;BME280;40029;58.708;50.190;2024-03-25T10:16:22;98822.78;;;2.68;89.18
54122;BME280;40029;58.708;50.190;2024-03-25T10:18:54;98835.81;;;2.69;89.45
54122;BME280;40029;58.708;50.190;2024-03-25T10:21:25;98837.59;;;2.67;89.94
54122;BME280;40029;58.708;50.190;2024-03-25T10:23:56;98833.31;;;2.65;89.61
54122;BME280;40029;58.708;50.190;2024-03-25T10:26:28;98827.34;;;2.58;90.03
54122;BME280;40029;58.708;50.190;2024-03-25T10:29:24;98829.84;;;2.64;89.67
54122;BME280;40029;58.708;50.190;2024-03-25T10:32:00;98826.94;;;2.77;89.93
54122;BME280;40029;58.708;50.190;2024-03-25T10:34:31;98825.84;;;2.84;88.74
54122;BME280;40029;58.708;50.190;2024-03-25T10:37:03;98834.56;;;2.84;89.58
54122;BME280;40029;58.708;50.190;2024-03-25T10:39:56;98834.56;;;2.84;89.30
54122;BME280;40029;58.708;50.190;2024-03-25T10:42:29;98832.63;;;2.91;88.57
54122;BME280;40029;58.708;50.190;2024-03-25T10:45:02;98834.75;;;3.09;88.75
54122;BME280;40029;58.708;50.190;2024-03-25T10:47:35;98836.72;;;3.01;87.87
54122;BME280;40029;58.708;50.190;2024-03-25T10:50:13;98834.16;;;3.00;88.51
54122;BME280;40029;58.708;50.190;2024-03-25T10:52:48;98834.31;;;2.94;88.89
54122;BME280;40029;58.708;50.190;2024-03-25T10:55:20;98837.50;;;3.05;87.92
54122;BME280;40029;58.708;50.190;2024-03-25T10:57:54;98839.84;;;3.16;88.28
54122;BME280;40029;58.708;50.190;2024-03-25T11:00:26;98842.81;;;3.02;87.88
54122;BME280;40029;58.708;50.190;2024-03-25T11:02:59;98837.66;;;2.99;88.62
54122;BME280;40029;58.708;50.190;2024-03-25T11:05:30;98824.59;;;2.99;88.67
54122;BME280;40029;58.708;50.190;2024-03-25T11:08:15;98827.22;;;3.30;87.26
54122;BME280;40029;58.708;50.190;2024-03-25T11:10:47;98829.25;;;3.20;87.19
54122;BME280;40029;58.708;50.190;2024-03-25T11:13:19;98816.84;;;3.28;87.41
54122;BME280;40029;58.708;50.190;2024-03-25T11:15:51;98817.63;;;3.32;87.50
54122;BME280;40029;58.708;50.190;2024-03-25T11:18:23;98831.13;;;3.46;87.32
54122;BME280;40029;58.708;50.190;2024-03-25T11:21:05;98830.16;;;3.51;86.40
54122;BME280;40029;58.708;50.190;2024-03-25T11:23:42;98828.44;;;3.50;86.65
54122;BME280;40029;58.708;50.190;2024-03-25T11:26:26;98827.56;;;3.51;86.58
54122;BME280;40029;58.708;50.190;2024-03-25T11:28:58;98825.03;;;3.77;85.68
54122;BME280;40029;58.708;50.190;2024-03-25T11:31:32;98814.50;;;3.80;85.75
54122;BME280;40029;58.708;50.190;2024-03-25T11:34:05;98817.16;;;3.79;85.42
54122;BME280;40029;58.708;50.190;2024-03-25T11:36:36;98803.78;;;3.88;85.18
54122;BME280;40029;58.708;50.190;2024-03-25T11:39:07;98804.31;;;3.99;85.39
54122;BME280;40029;58.708;50.190;2024-03-25T11:41:43;98808.19;;;3.88;84.96
54122;BME280;40029;58.708;50.190;2024-03-25T11:44:14;98799.78;;;3.76;85.88
54122;BME280;40029;58.708;50.190;2024-03-25T11:47:05;98802.53;;;4.00;84.84
54122;BME280;40029;58.708;50.190;2024-03-25T11:49:39;98808.41;;;4.08;84.50
54122;BME280;40029;58.708;50.190;2024-03-25T11:52:31;98807.72;;;4.30;84.35
54122;BME280;40029;58.708;50.190;2024-03-25T11:55:21;98817.03;;;4.38;83.94
54122;BME280;40029;58.708;50.190;2024-03-25T11:57:57;98812.34;;;4.21;83.87
54122;BME280;40029;58.708;50.190;2024-03-25T12:00:28;98813.97;;;4.25;83.64
54122;BME280;40029;58.708;50.190;2024-03-25T12:03:00;98810.91;;;4.11;84.57
54122;BME280;40029;58.708;50.190;2024-03-25T12:05:33;98811.78;;;4.12;84.43
54122;BME280;40029;58.708;50.190;2024-03-25T12:08:23;98817.97;;;4.09;84.63
54122;BME280;40029;58.708;50.190;2024-03-25T12:10:57;98827.56;;;4.09;84.13
54122;BME280;40029;58.708;50.190;2024-03-25T12:13:47;98830.50;;;3.98;84.64
54122;BME280;40029;58.708;50.190;2024-03-25T12:16:18;98843.59;;;3.98;84.57
54122;BME280;40029;58.708;50.190;2024-03-25T12:18:49;98841.22;;;3.90;85.05
54122;BME280;40029;58.708;50.190;2024-03-25T12:21:20;98843.06;;;3.86;85.40
54122;BME280;40029;58.708;50.190;2024-03-25T12:24:13;98850.91;;;3.86;84.96
54122;BME280;40029;58.708;50.190;2024-03-25T12:26:44;98844.38;;;3.72;85.76
54122;BME280;40029;58.708;50.190;2024-03-25T12:29:15;98852.97;;;3.75;85.70
54122;BME280;40029;58.708;50.190;2024-03-25T12:31:56;98848.06;;;3.64;86.20
54122;BME280;40029;58.708;50.190;2024-03-25T12:34:47;98847.09;;;3.67;86.32
54122;BME280;40029;58.708;50.190;2024-03-25T12:37:19;98838.25;;;3.73;85.81
54122;BME280;40029;58.708;50.190;2024-03-25T12:39:50;98836.50;;;3.73;85.70
54122;BME280;40029;58.708;50.190;2024-03-25T12:42:21;98846.03;;;3.74;85.45
54122;BME280;40029;58.708;50.190;2024-03-25T12:44:53;98838.38;;;3.68;86.11
54122;BME280;40029;58.708;50.190;2024-03-25T12:47:25;98835.72;;;3.70;85.99
54122;BME280;40029;58.708;50.190;2024-03-25T12:49:56;98839.84;;;3.78;85.34
54122;BME280;40029;58.708;50.190;2024-03-25T12:52:46;98846.88;;;3.76;85.34
54122;BME280;40029;58.708;50.190;2024-03-25T12:55:18;98851.09;;;3.80;85.47
54122;BME280;40029;58.708;50.190;2024-03-25T12:57:49;98853.25;;;3.66;85.55
54122;BME280;40029;58.708;50.190;2024-03-25T13:00:20;98850.72;;;3.63;85.77
54122;BME280;40029;58.708;50.190;2024-03-25T13:02:52;98848.13;;;3.61;85.72
54122;BME280;40029;58.708;50.190;2024-03-25T13:05:23;98856.94;;;3.59;86.44
54122;BME280;40029;58.708;50.190;2024-03-25T13:07:54;98853.25;;;3.66;85.84
54122;BME280;40029;58.708;50.190;2024-03-25T13:10:26;98866.25;;;3.69;85.59
54122;BME280;40029;58.708;50.190;2024-03-25T13:13:15;98860.31;;;3.62;85.99
54122;BME280;40029;58.708;50.190;2024-03-25T13:15:47;98863.72;;;3.66;85.55
54122;BME280;40029;58.708;50.190;2024-03-25T13:18:18;98869.13;;;3.60;85.81
54122;BME280;40029;58.708;50.190;2024-03-25T13:21:07;98868.19;;;3.61;86.40
54122;BME280;40029;58.708;50.190;2024-03-25T13:23:39;98868.09;;;3.65;85.85
54122;BME280;40029;58.708;50.190;2024-03-25T13:26:10;98874.97;;;3.68;85.96
54122;BME280;40029;58.708;50.190;2024-03-25T13:28:41;98879.31;;;3.69;85.36
54122;BME280;40029;58.708;50.190;2024-03-25T13:31:12;98878.66;;;3.61;86.19
54122;BME280;40029;58.708;50.190;2024-03-25T13:33:43;98876.97;;;3.60;85.85
54122;BME280;40029;58.708;50.190;2024-03-25T13:36:33;98875.38;;;3.54;86.09